sensor_id;sensor_type;location;lat;lon;timestamp;temperature;humidity
5457;DHT22;2751;49.802;9.944;2023-03-01T00:01:03;0.00;1.00
5457;DHT22;2751;49.802;9.944;2023-03-01T00:03:31;-0.10;1.00
5457;DHT22;2751;49.802;9.944;2023-03-01T00:05:58;-0.10;1.00
5457;DHT22;2751;49.802;9.944;2023-03-01T00:08:27;0.00;1.00
5457;DHT22;2751;49.802;9.944;2023-03-01T00:11:03;0.00;1.00
5457;DHT22;2751;49.802;9.944;2023-03-01T00:13:31;0.00;1.00
5457;DHT22;2751;49.802;9.944;2023-03-01T00:15:58;-0.10;1.00
5457;DHT22;2751;49.802;9.944;2023-03-01T00:18:24;-0.10;1.00
5457;DHT22;2751;49.802;9.944;2023-03-01T00:20:51;-0.10;1.00
5457;DHT22;2751;49.802;9.944;2023-03-01T00:23:19;-0.10;1.00
5457;DHT22;2751;49.802;9.944;2023-03-01T00:25:47;-0.20;1.00
5457;DHT22;2751;49.802;9.944;2023-03-01T00:28:14;-0.20;1.00
5457;DHT22;2751;49.802;9.944;2023-03-01T00:30:41;-0.20;1.00
5457;DHT22;2751;49.802;9.944;2023-03-01T00:33:08;-0.20;1.00
5457;DHT22;2751;49.802;9.944;2023-03-01T00:35:35;-0.20;1.00
5457;DHT22;2751;49.802;9.944;2023-03-01T00:38:03;-0.30;1.00
5457;DHT22;2751;49.802;9.944;2023-03-01T00:40:32;-0.20;1.00
5457;DHT22;2751;49.802;9.944;2023-03-01T00:43:01;-0.40;1.00
5457;DHT22;2751;49.802;9.944;2023-03-01T00:45:27;-0.40;1.00
5457;DHT22;2751;49.802;9.944;2023-03-01T00:47:56;0.10;1.00
5457;DHT22;2751;49.802;9.944;2023-03-01T00:50:24;-0.50;1.00
5457;DHT22;2751;49.802;9.944;2023-03-01T00:52:53;-0.50;1.00
5457;DHT22;2751;49.802;9.944;2023-03-01T00:55:20;-0.10;1.00
5457;DHT22;2751;49.802;9.944;2023-03-01T00:57:47;-0.50;1.00
5457;DHT22;2751;49.802;9.944;2023-03-01T01:00:16;-0.50;1.00
5457;DHT22;2751;49.802;9.944;2023-03-01T01:02:43;-0.50;1.00
5457;DHT22;2751;49.802;9.944;2023-03-01T01:05:10;-0.50;1.00
5457;DHT22;2751;49.802;9.944;2023-03-01T01:07:37;-0.50;1.00
5457;DHT22;2751;49.802;9.944;2023-03-01T01:10:05;-0.50;1.00
5457;DHT22;2751;49.802;9.944;2023-03-01T01:12:33;-0.50;1.00
5457;DHT22;2751;49.802;9.944;2023-03-01T01:14:59;-0.50;1.00
5457;DHT22;2751;49.802;9.944;2023-03-01T01:17:28;-0.50;1.00
5457;DHT22;2751;49.802;9.944;2023-03-01T01:19:55;-0.50;1.00
5457;DHT22;2751;49.802;9.944;2023-03-01T01:22:21;-0.50;1.00
5457;DHT22;2751;49.802;9.944;2023-03-01T01:24:48;-0.60;1.00
5457;DHT22;2751;49.802;9.944;2023-03-01T01:27:15;-0.60;1.00
5457;DHT22;2751;49.802;9.944;2023-03-01T01:29:42;-0.50;1.00
5457;DHT22;2751;49.802;9.944;2023-03-01T01:32:09;-0.60;1.00
5457;DHT22;2751;49.802;9.944;2023-03-01T01:34:37;-0.60;1.00
5457;DHT22;2751;49.802;9.944;2023-03-01T01:37:04;-0.60;1.00
5457;DHT22;2751;49.802;9.944;2023-03-01T01:39:33;-0.60;1.00
5457;DHT22;2751;49.802;9.944;2023-03-01T01:42:00;-0.50;1.00
5457;DHT22;2751;49.802;9.944;2023-03-01T01:44:28;-0.60;1.00
5457;DHT22;2751;49.802;9.944;2023-03-01T01:46:58;-0.60;1.00
5457;DHT22;2751;49.802;9.944;2023-03-01T01:49:30;-0.30;1.00
5457;DHT22;2751;49.802;9.944;2023-03-01T01:52:05;-0.70;1.00
5457;DHT22;2751;49.802;9.944;2023-03-01T01:54:40;-0.70;1.00
5457;DHT22;2751;49.802;9.944;2023-03-01T01:57:12;-0.70;1.00
5457;DHT22;2751;49.802;9.944;2023-03-01T01:59:42;-0.70;1.00
5457;DHT22;2751;49.802;9.944;2023-03-01T02:02:10;-0.70;1.00
5457;DHT22;2751;49.802;9.944;2023-03-01T02:04:38;-0.70;1.00
5457;DHT22;2751;49.802;9.944;2023-03-01T02:07:10;-0.20;1.00
5457;DHT22;2751;49.802;9.944;2023-03-01T02:09:43;-0.70;1.00
5457;DHT22;2751;49.802;9.944;2023-03-01T02:12:13;-0.70;1.00
5457;DHT22;2751;49.802;9.944;2023-03-01T02:14:40;-0.70;1.00
5457;DHT22;2751;49.802;9.944;2023-03-01T02:17:07;-0.80;1.00
5457;DHT22;2751;49.802;9.944;2023-03-01T02:19:47;-0.80;1.00
5457;DHT22;2751;49.802;9.944;2023-03-01T02:22:23;-0.80;1.00
5457;DHT22;2751;49.802;9.944;2023-03-01T02:24:58;-0.80;1.00
5457;DHT22;2751;49.802;9.944;2023-03-01T02:27:33;-0.80;1.00
5457;DHT22;2751;49.802;9.944;2023-03-01T02:30:05;-0.80;1.00
5457;DHT22;2751;49.802;9.944;2023-03-01T02:32:33;-0.70;1.00
5457;DHT22;2751;49.802;9.944;2023-03-01T02:35:00;-1.10;1.00
5457;DHT22;2751;49.802;9.944;2023-03-01T02:37:27;-0.70;1.00
5457;DHT22;2751;49.802;9.944;2023-03-01T02:39:58;-0.70;1.00
5457;DHT22;2751;49.802;9.944;2023-03-01T02:42:30;-0.70;1.00
5457;DHT22;2751;49.802;9.944;2023-03-01T02:44:58;-0.70;1.00
5457;DHT22;2751;49.802;9.944;2023-03-01T02:47:26;-0.70;1.00
5457;DHT22;2751;49.802;9.944;2023-03-01T02:49:53;-0.60;1.00
5457;DHT22;2751;49.802;9.944;2023-03-01T02:52:36;-0.70;1.00
5457;DHT22;2751;49.802;9.944;2023-03-01T02:55:09;-0.70;1.00
5457;DHT22;2751;49.802;9.944;2023-03-01T02:57:39;-0.70;1.00
5457;DHT22;2751;49.802;9.944;2023-03-01T03:00:08;-0.80;1.00
5457;DHT22;2751;49.802;9.944;2023-03-01T03:02:37;-0.90;1.00
5457;DHT22;2751;49.802;9.944;2023-03-01T03:05:06;-0.90;1.00
5457;DHT22;2751;49.802;9.944;2023-03-01T03:07:34;-0.90;1.00
5457;DHT22;2751;49.802;9.944;2023-03-01T03:10:01;-0.90;1.00
5457;DHT22;2751;49.802;9.944;2023-03-01T03:12:28;-0.90;1.00
5457;DHT22;2751;49.802;9.944;2023-03-01T03:14:55;-1.00;1.00
5457;DHT22;2751;49.802;9.944;2023-03-01T03:17:22;-1.00;1.00
5457;DHT22;2751;49.802;9.944;2023-03-01T03:19:51;-1.00;1.00
5457;DHT22;2751;49.802;9.944;2023-03-01T03:22:18;-1.00;1.00
5457;DHT22;2751;49.802;9.944;2023-03-01T03:24:44;-1.00;1.00
5457;DHT22;2751;49.802;9.944;2023-03-01T03:27:11;-1.00;1.00
5457;DHT22;2751;49.802;9.944;2023-03-01T03:29:38;-1.00;1.00
5457;DHT22;2751;49.802;9.944;2023-03-01T03:32:05;-1.10;1.00
5457;DHT22;2751;49.802;9.944;2023-03-01T03:34:32;-1.10;1.00
5457;DHT22;2751;49.802;9.944;2023-03-01T03:37:00;-1.10;1.00
5457;DHT22;2751;49.802;9.944;2023-03-01T03:39:27;-1.00;1.00
5457;DHT22;2751;49.802;9.944;2023-03-01T03:42:00;-1.10;1.00
5457;DHT22;2751;49.802;9.944;2023-03-01T03:44:27;-1.00;1.00
5457;DHT22;2751;49.802;9.944;2023-03-01T03:46:54;-1.00;1.00
5457;DHT22;2751;49.802;9.944;2023-03-01T03:49:21;-1.00;1.00
5457;DHT22;2751;49.802;9.944;2023-03-01T03:51:48;-1.00;1.00
5457;DHT22;2751;49.802;9.944;2023-03-01T03:54:16;-0.90;1.00
5457;DHT22;2751;49.802;9.944;2023-03-01T03:56:43;-0.60;1.00
5457;DHT22;2751;49.802;9.944;2023-03-01T03:59:10;-0.90;1.00
5457;DHT22;2751;49.802;9.944;2023-03-01T04:01:37;-0.80;1.00
5457;DHT22;2751;49.802;9.944;2023-03-01T04:04:04;-0.80;1.00
5457;DHT22;2751;49.802;9.944;2023-03-01T04:06:33;-0.90;1.00
5457;DHT22;2751;49.802;9.944;2023-03-01T04:09:00;-0.90;1.00
5457;DHT22;2751;49.802;9.944;2023-03-01T04:11:29;-0.80;1.00
5457;DHT22;2751;49.802;9.944;2023-03-01T04:13:57;-0.80;1.00
5457;DHT22;2751;49.802;9.944;2023-03-01T04:16:25;-0.80;1.00
5457;DHT22;2751;49.802;9.944;2023-03-01T04:18:52;-0.80;1.00
5457;DHT22;2751;49.802;9.944;2023-03-01T04:21:20;-0.80;1.00
5457;DHT22;2751;49.802;9.944;2023-03-01T04:23:47;-0.70;1.00
5457;DHT22;2751;49.802;9.944;2023-03-01T04:26:18;-0.60;1.00
5457;DHT22;2751;49.802;9.944;2023-03-01T04:28:47;-0.60;1.00
5457;DHT22;2751;49.802;9.944;2023-03-01T04:31:17;-0.60;1.00
5457;DHT22;2751;49.802;9.944;2023-03-01T04:33:47;-0.60;1.00
5457;DHT22;2751;49.802;9.944;2023-03-01T04:36:16;-0.60;1.00
5457;DHT22;2751;49.802;9.944;2023-03-01T04:38:43;-0.60;1.00
5457;DHT22;2751;49.802;9.944;2023-03-01T04:41:14;-0.70;1.00
5457;DHT22;2751;49.802;9.944;2023-03-01T04:43:41;-0.60;1.00
5457;DHT22;2751;49.802;9.944;2023-03-01T04:46:13;-0.60;1.00
5457;DHT22;2751;49.802;9.944;2023-03-01T04:48:41;-0.60;1.00
5457;DHT22;2751;49.802;9.944;2023-03-01T04:51:09;-0.60;1.00
5457;DHT22;2751;49.802;9.944;2023-03-01T04:53:39;-0.70;1.00
5457;DHT22;2751;49.802;9.944;2023-03-01T04:56:06;-0.60;1.00
5457;DHT22;2751;49.802;9.944;2023-03-01T04:58:33;-0.60;1.00
5457;DHT22;2751;49.802;9.944;2023-03-01T05:01:00;-0.60;1.00
5457;DHT22;2751;49.802;9.944;2023-03-01T05:03:28;-0.60;1.00
5457;DHT22;2751;49.802;9.944;2023-03-01T05:05:58;-0.60;1.00
5457;DHT22;2751;49.802;9.944;2023-03-01T05:08:26;-0.60;1.00
5457;DHT22;2751;49.802;9.944;2023-03-01T05:10:53;-0.60;1.00
5457;DHT22;2751;49.802;9.944;2023-03-01T05:13:20;-0.60;1.00
5457;DHT22;2751;49.802;9.944;2023-03-01T05:15:49;-0.70;1.00
5457;DHT22;2751;49.802;9.944;2023-03-01T05:18:20;-0.70;1.00
5457;DHT22;2751;49.802;9.944;2023-03-01T05:20:48;-0.70;1.00
5457;DHT22;2751;49.802;9.944;2023-03-01T05:23:15;-0.70;1.00
5457;DHT22;2751;49.802;9.944;2023-03-01T05:25:41;-0.70;1.00
5457;DHT22;2751;49.802;9.944;2023-03-01T05:28:11;-0.70;1.00
5457;DHT22;2751;49.802;9.944;2023-03-01T05:30:38;-0.70;1.00
5457;DHT22;2751;49.802;9.944;2023-03-01T05:33:06;-0.70;1.00
5457;DHT22;2751;49.802;9.944;2023-03-01T05:35:39;-0.50;1.00
5457;DHT22;2751;49.802;9.944;2023-03-01T05:38:07;-0.70;1.00
5457;DHT22;2751;49.802;9.944;2023-03-01T05:40:34;-0.70;1.00
5457;DHT22;2751;49.802;9.944;2023-03-01T05:43:01;-0.80;1.00
5457;DHT22;2751;49.802;9.944;2023-03-01T05:45:31;-0.80;1.00
5457;DHT22;2751;49.802;9.944;2023-03-01T05:47:59;-0.80;1.00
5457;DHT22;2751;49.802;9.944;2023-03-01T05:50:27;-0.80;1.00
5457;DHT22;2751;49.802;9.944;2023-03-01T05:52:58;-0.80;1.00
5457;DHT22;2751;49.802;9.944;2023-03-01T05:55:28;-1.10;1.00
5457;DHT22;2751;49.802;9.944;2023-03-01T05:57:55;-0.80;1.00
5457;DHT22;2751;49.802;9.944;2023-03-01T06:00:22;-0.80;1.00
5457;DHT22;2751;49.802;9.944;2023-03-01T06:02:49;-0.80;1.00
5457;DHT22;2751;49.802;9.944;2023-03-01T06:05:17;-0.80;1.00
5457;DHT22;2751;49.802;9.944;2023-03-01T06:07:44;-0.80;1.00
5457;DHT22;2751;49.802;9.944;2023-03-01T06:10:12;-0.80;1.00
5457;DHT22;2751;49.802;9.944;2023-03-01T06:12:41;-0.80;1.00
5457;DHT22;2751;49.802;9.944;2023-03-01T06:15:10;-0.80;1.00
5457;DHT22;2751;49.802;9.944;2023-03-01T06:17:38;-0.80;1.00
5457;DHT22;2751;49.802;9.944;2023-03-01T06:20:08;-0.80;1.00
5457;DHT22;2751;49.802;9.944;2023-03-01T06:22:35;-0.80;1.00
5457;DHT22;2751;49.802;9.944;2023-03-01T06:25:03;-0.80;1.00
5457;DHT22;2751;49.802;9.944;2023-03-01T06:27:30;-0.70;1.00
5457;DHT22;2751;49.802;9.944;2023-03-01T06:29:59;-0.60;1.00
5457;DHT22;2751;49.802;9.944;2023-03-01T06:32:26;-0.60;1.00
5457;DHT22;2751;49.802;9.944;2023-03-01T06:34:52;-0.60;1.00
5457;DHT22;2751;49.802;9.944;2023-03-01T06:37:19;-0.60;1.00
5457;DHT22;2751;49.802;9.944;2023-03-01T06:39:46;-0.10;1.00
5457;DHT22;2751;49.802;9.944;2023-03-01T06:42:13;-0.50;1.00
5457;DHT22;2751;49.802;9.944;2023-03-01T06:44:40;-0.50;1.00
5457;DHT22;2751;49.802;9.944;2023-03-01T06:47:08;-0.50;1.00
5457;DHT22;2751;49.802;9.944;2023-03-01T06:49:35;-0.40;1.00
5457;DHT22;2751;49.802;9.944;2023-03-01T06:52:02;-0.40;1.00
5457;DHT22;2751;49.802;9.944;2023-03-01T06:54:29;-0.30;1.00
5457;DHT22;2751;49.802;9.944;2023-03-01T06:56:56;-0.30;1.00
5457;DHT22;2751;49.802;9.944;2023-03-01T06:59:23;-0.20;1.00
5457;DHT22;2751;49.802;9.944;2023-03-01T07:01:50;-0.20;1.00
5457;DHT22;2751;49.802;9.944;2023-03-01T07:04:18;-0.20;1.00
5457;DHT22;2751;49.802;9.944;2023-03-01T07:06:45;-0.20;1.00
5457;DHT22;2751;49.802;9.944;2023-03-01T07:09:11;-0.10;1.00
5457;DHT22;2751;49.802;9.944;2023-03-01T07:11:38;0.00;1.00
5457;DHT22;2751;49.802;9.944;2023-03-01T07:14:05;0.10;1.00
5457;DHT22;2751;49.802;9.944;2023-03-01T07:16:32;0.20;1.00
5457;DHT22;2751;49.802;9.944;2023-03-01T07:18:59;0.40;1.00
5457;DHT22;2751;49.802;9.944;2023-03-01T07:21:27;0.70;1.00
5457;DHT22;2751;49.802;9.944;2023-03-01T07:23:54;1.00;1.00
5457;DHT22;2751;49.802;9.944;2023-03-01T07:26:21;1.10;1.00
5457;DHT22;2751;49.802;9.944;2023-03-01T07:28:47;1.30;1.00
5457;DHT22;2751;49.802;9.944;2023-03-01T07:31:14;1.50;1.00
5457;DHT22;2751;49.802;9.944;2023-03-01T07:33:42;2.00;1.00
5457;DHT22;2751;49.802;9.944;2023-03-01T07:36:09;2.30;1.00
5457;DHT22;2751;49.802;9.944;2023-03-01T07:38:37;2.50;1.00
5457;DHT22;2751;49.802;9.944;2023-03-01T07:41:04;2.90;1.00
5457;DHT22;2751;49.802;9.944;2023-03-01T07:43:31;3.20;1.00
5457;DHT22;2751;49.802;9.944;2023-03-01T07:45:59;3.40;1.00
5457;DHT22;2751;49.802;9.944;2023-03-01T07:48:26;3.60;1.00
5457;DHT22;2751;49.802;9.944;2023-03-01T07:50:53;4.10;1.00
5457;DHT22;2751;49.802;9.944;2023-03-01T07:53:20;4.70;1.00
5457;DHT22;2751;49.802;9.944;2023-03-01T07:55:48;4.80;1.00
5457;DHT22;2751;49.802;9.944;2023-03-01T07:58:15;4.90;1.00
5457;DHT22;2751;49.802;9.944;2023-03-01T08:00:42;4.90;1.00
5457;DHT22;2751;49.802;9.944;2023-03-01T08:03:09;4.80;1.00
5457;DHT22;2751;49.802;9.944;2023-03-01T08:05:36;5.30;1.00
5457;DHT22;2751;49.802;9.944;2023-03-01T08:08:04;5.50;1.00
5457;DHT22;2751;49.802;9.944;2023-03-01T08:10:31;5.80;1.00
5457;DHT22;2751;49.802;9.944;2023-03-01T08:12:59;5.80;1.00
5457;DHT22;2751;49.802;9.944;2023-03-01T08:15:26;6.20;1.00
5457;DHT22;2751;49.802;9.944;2023-03-01T08:17:53;6.60;1.00
5457;DHT22;2751;49.802;9.944;2023-03-01T08:20:20;7.10;1.00
5457;DHT22;2751;49.802;9.944;2023-03-01T08:22:47;7.10;1.00
5457;DHT22;2751;49.802;9.944;2023-03-01T08:25:13;7.40;1.00
5457;DHT22;2751;49.802;9.944;2023-03-01T08:27:40;7.80;1.00
5457;DHT22;2751;49.802;9.944;2023-03-01T08:30:10;7.90;1.00
5457;DHT22;2751;49.802;9.944;2023-03-01T08:32:38;8.00;1.00
5457;DHT22;2751;49.802;9.944;2023-03-01T08:35:05;8.30;1.00
5457;DHT22;2751;49.802;9.944;2023-03-01T08:37:32;8.50;1.00
5457;DHT22;2751;49.802;9.944;2023-03-01T08:39:59;8.60;1.00
5457;DHT22;2751;49.802;9.944;2023-03-01T08:42:26;8.60;1.00
5457;DHT22;2751;49.802;9.944;2023-03-01T08:44:53;8.70;1.00
5457;DHT22;2751;49.802;9.944;2023-03-01T08:47:22;8.70;1.00
5457;DHT22;2751;49.802;9.944;2023-03-01T08:49:49;8.90;1.00
5457;DHT22;2751;49.802;9.944;2023-03-01T08:52:16;9.20;1.00
5457;DHT22;2751;49.802;9.944;2023-03-01T08:54:43;9.50;1.00
5457;DHT22;2751;49.802;9.944;2023-03-01T08:57:09;10.00;1.00
5457;DHT22;2751;49.802;9.944;2023-03-01T08:59:38;10.30;1.00
5457;DHT22;2751;49.802;9.944;2023-03-01T09:02:08;10.70;1.00
5457;DHT22;2751;49.802;9.944;2023-03-01T09:04:38;10.80;1.00
5457;DHT22;2751;49.802;9.944;2023-03-01T09:07:04;11.00;1.00
5457;DHT22;2751;49.802;9.944;2023-03-01T09:09:31;10.80;1.00
5457;DHT22;2751;49.802;9.944;2023-03-01T09:11:58;11.00;1.00
5457;DHT22;2751;49.802;9.944;2023-03-01T09:14:25;11.10;1.00
5457;DHT22;2751;49.802;9.944;2023-03-01T09:16:52;11.30;1.00
5457;DHT22;2751;49.802;9.944;2023-03-01T09:19:19;11.60;1.00
5457;DHT22;2751;49.802;9.944;2023-03-01T09:21:47;11.80;1.00
5457;DHT22;2751;49.802;9.944;2023-03-01T09:24:21;11.90;1.00
5457;DHT22;2751;49.802;9.944;2023-03-01T09:26:48;11.50;1.00
5457;DHT22;2751;49.802;9.944;2023-03-01T09:29:15;11.60;1.00
5457;DHT22;2751;49.802;9.944;2023-03-01T09:31:43;11.60;1.00
5457;DHT22;2751;49.802;9.944;2023-03-01T09:34:10;11.50;1.00
5457;DHT22;2751;49.802;9.944;2023-03-01T09:36:38;12.00;1.00
5457;DHT22;2751;49.802;9.944;2023-03-01T09:39:06;12.00;1.00
5457;DHT22;2751;49.802;9.944;2023-03-01T09:41:55;12.70;1.00
5457;DHT22;2751;49.802;9.944;2023-03-01T09:44:31;12.50;1.00
5457;DHT22;2751;49.802;9.944;2023-03-01T09:47:01;12.30;1.00
5457;DHT22;2751;49.802;9.944;2023-03-01T09:49:30;13.00;1.00
5457;DHT22;2751;49.802;9.944;2023-03-01T09:52:00;13.50;1.00
5457;DHT22;2751;49.802;9.944;2023-03-01T09:54:31;13.60;1.00
5457;DHT22;2751;49.802;9.944;2023-03-01T09:57:06;14.10;1.00
5457;DHT22;2751;49.802;9.944;2023-03-01T09:59:56;14.50;1.00
5457;DHT22;2751;49.802;9.944;2023-03-01T10:02:33;13.60;1.00
5457;DHT22;2751;49.802;9.944;2023-03-01T10:05:13;12.50;1.00
5457;DHT22;2751;49.802;9.944;2023-03-01T10:07:48;12.60;1.00
5457;DHT22;2751;49.802;9.944;2023-03-01T10:10:29;13.40;1.00
5457;DHT22;2751;49.802;9.944;2023-03-01T10:13:09;13.30;1.00
5457;DHT22;2751;49.802;9.944;2023-03-01T10:15:41;13.80;1.00
5457;DHT22;2751;49.802;9.944;2023-03-01T10:18:13;14.40;1.00
5457;DHT22;2751;49.802;9.944;2023-03-01T10:20:46;14.70;1.00
5457;DHT22;2751;49.802;9.944;2023-03-01T10:23:14;14.40;1.00
5457;DHT22;2751;49.802;9.944;2023-03-01T10:25:48;14.60;1.00
5457;DHT22;2751;49.802;9.944;2023-03-01T10:28:25;14.50;1.00
5457;DHT22;2751;49.802;9.944;2023-03-01T10:30:53;14.00;1.00
5457;DHT22;2751;49.802;9.944;2023-03-01T10:33:22;11.70;1.00
5457;DHT22;2751;49.802;9.944;2023-03-01T10:35:50;11.50;1.00
5457;DHT22;2751;49.802;9.944;2023-03-01T10:38:18;12.40;1.00
5457;DHT22;2751;49.802;9.944;2023-03-01T10:40:55;14.10;1.00
5457;DHT22;2751;49.802;9.944;2023-03-01T10:43:24;14.50;1.00
5457;DHT22;2751;49.802;9.944;2023-03-01T10:45:51;14.70;1.00
5457;DHT22;2751;49.802;9.944;2023-03-01T10:48:20;14.40;1.00
5457;DHT22;2751;49.802;9.944;2023-03-01T10:50:51;15.20;1.00
5457;DHT22;2751;49.802;9.944;2023-03-01T10:53:33;15.00;1.00
5457;DHT22;2751;49.802;9.944;2023-03-01T10:56:03;14.50;1.00
5457;DHT22;2751;49.802;9.944;2023-03-01T10:58:33;12.40;1.00
5457;DHT22;2751;49.802;9.944;2023-03-01T11:01:01;10.70;1.00
5457;DHT22;2751;49.802;9.944;2023-03-01T11:03:30;9.70;1.00
5457;DHT22;2751;49.802;9.944;2023-03-01T11:06:03;9.10;1.00
5457;DHT22;2751;49.802;9.944;2023-03-01T11:08:36;8.70;1.00
5457;DHT22;2751;49.802;9.944;2023-03-01T11:11:14;8.10;1.00
5457;DHT22;2751;49.802;9.944;2023-03-01T11:13:57;7.70;1.00
5457;DHT22;2751;49.802;9.944;2023-03-01T11:16:33;7.40;1.00
5457;DHT22;2751;49.802;9.944;2023-03-01T11:19:18;7.10;1.00
5457;DHT22;2751;49.802;9.944;2023-03-01T11:22:03;7.00;1.00
5457;DHT22;2751;49.802;9.944;2023-03-01T11:24:40;6.80;1.00
5457;DHT22;2751;49.802;9.944;2023-03-01T11:27:18;6.70;1.00
5457;DHT22;2751;49.802;9.944;2023-03-01T11:29:50;6.60;1.00
5457;DHT22;2751;49.802;9.944;2023-03-01T11:32:22;6.60;1.00
5457;DHT22;2751;49.802;9.944;2023-03-01T11:34:53;6.60;1.00
5457;DHT22;2751;49.802;9.944;2023-03-01T11:37:29;6.60;1.00
5457;DHT22;2751;49.802;9.944;2023-03-01T11:40:05;6.60;1.00
5457;DHT22;2751;49.802;9.944;2023-03-01T11:42:46;6.60;1.00
5457;DHT22;2751;49.802;9.944;2023-03-01T11:45:14;6.50;1.00
5457;DHT22;2751;49.802;9.944;2023-03-01T11:47:55;6.60;1.00
5457;DHT22;2751;49.802;9.944;2023-03-01T11:50:29;6.80;1.00
5457;DHT22;2751;49.802;9.944;2023-03-01T11:53:11;6.60;1.00
5457;DHT22;2751;49.802;9.944;2023-03-01T11:56:03;6.50;1.00
5457;DHT22;2751;49.802;9.944;2023-03-01T11:58:53;6.50;1.00
5457;DHT22;2751;49.802;9.944;2023-03-01T12:01:39;6.50;1.00
5457;DHT22;2751;49.802;9.944;2023-03-01T12:07:12;6.50;1.00
5457;DHT22;2751;49.802;9.944;2023-03-01T12:10:10;6.60;1.00
5457;DHT22;2751;49.802;9.944;2023-03-01T12:12:51;6.70;1.00
5457;DHT22;2751;49.802;9.944;2023-03-01T12:16:01;6.90;1.00
5457;DHT22;2751;49.802;9.944;2023-03-01T12:19:01;6.80;1.00
5457;DHT22;2751;49.802;9.944;2023-03-01T12:21:44;6.80;1.00
5457;DHT22;2751;49.802;9.944;2023-03-01T12:24:31;6.80;1.00
5457;DHT22;2751;49.802;9.944;2023-03-01T12:27:17;6.90;1.00
5457;DHT22;2751;49.802;9.944;2023-03-01T12:29:54;6.90;1.00
5457;DHT22;2751;49.802;9.944;2023-03-01T12:32:41;6.80;1.00
5457;DHT22;2751;49.802;9.944;2023-03-01T12:35:39;6.80;1.00
5457;DHT22;2751;49.802;9.944;2023-03-01T12:38:24;6.80;1.00
5457;DHT22;2751;49.802;9.944;2023-03-01T12:41:25;6.90;1.00
5457;DHT22;2751;49.802;9.944;2023-03-01T12:44:01;6.90;1.00
5457;DHT22;2751;49.802;9.944;2023-03-01T12:46:41;7.10;1.00
5457;DHT22;2751;49.802;9.944;2023-03-01T12:49:16;6.90;1.00
5457;DHT22;2751;49.802;9.944;2023-03-01T12:51:49;6.90;1.00
5457;DHT22;2751;49.802;9.944;2023-03-01T12:54:22;6.90;1.00
5457;DHT22;2751;49.802;9.944;2023-03-01T12:56:52;7.00;1.00
5457;DHT22;2751;49.802;9.944;2023-03-01T12:59:24;7.00;1.00
5457;DHT22;2751;49.802;9.944;2023-03-01T13:01:56;7.00;1.00
5457;DHT22;2751;49.802;9.944;2023-03-01T13:04:40;7.10;1.00
5457;DHT22;2751;49.802;9.944;2023-03-01T13:07:35;7.10;1.00
5457;DHT22;2751;49.802;9.944;2023-03-01T13:10:20;7.60;1.00
5457;DHT22;2751;49.802;9.944;2023-03-01T13:13:01;7.20;1.00
5457;DHT22;2751;49.802;9.944;2023-03-01T13:15:30;7.30;1.00
5457;DHT22;2751;49.802;9.944;2023-03-01T13:17:59;7.30;1.00
5457;DHT22;2751;49.802;9.944;2023-03-01T13:20:31;7.40;1.00
5457;DHT22;2751;49.802;9.944;2023-03-01T13:23:04;7.40;1.00
5457;DHT22;2751;49.802;9.944;2023-03-01T13:25:32;7.60;1.00
5457;DHT22;2751;49.802;9.944;2023-03-01T13:28:36;7.20;1.00
5457;DHT22;2751;49.802;9.944;2023-03-01T13:31:05;7.50;1.00
5457;DHT22;2751;49.802;9.944;2023-03-01T13:33:41;7.60;1.00
5457;DHT22;2751;49.802;9.944;2023-03-01T13:36:11;7.70;1.00
5457;DHT22;2751;49.802;9.944;2023-03-01T13:38:46;7.70;1.00
5457;DHT22;2751;49.802;9.944;2023-03-01T13:41:14;7.80;1.00
5457;DHT22;2751;49.802;9.944;2023-03-01T13:43:42;7.80;1.00
5457;DHT22;2751;49.802;9.944;2023-03-01T13:46:12;7.80;1.00
5457;DHT22;2751;49.802;9.944;2023-03-01T13:48:43;7.80;1.00
5457;DHT22;2751;49.802;9.944;2023-03-01T13:51:12;7.80;1.00
5457;DHT22;2751;49.802;9.944;2023-03-01T13:53:42;7.80;1.00
5457;DHT22;2751;49.802;9.944;2023-03-01T13:56:13;7.80;1.00
5457;DHT22;2751;49.802;9.944;2023-03-01T13:58:51;7.90;1.00
5457;DHT22;2751;49.802;9.944;2023-03-01T14:01:25;7.90;1.00
5457;DHT22;2751;49.802;9.944;2023-03-01T14:03:53;7.90;1.00
5457;DHT22;2751;49.802;9.944;2023-03-01T14:06:23;7.90;1.00
5457;DHT22;2751;49.802;9.944;2023-03-01T14:08:59;8.40;1.00
5457;DHT22;2751;49.802;9.944;2023-03-01T14:11:59;8.00;1.00
5457;DHT22;2751;49.802;9.944;2023-03-01T14:14:42;8.10;1.00
5457;DHT22;2751;49.802;9.944;2023-03-01T14:20:14;8.00;1.00
5457;DHT22;2751;49.802;9.944;2023-03-01T14:22:44;8.10;1.00
5457;DHT22;2751;49.802;9.944;2023-03-01T14:25:24;8.20;1.00
5457;DHT22;2751;49.802;9.944;2023-03-01T14:27:55;8.10;1.00
5457;DHT22;2751;49.802;9.944;2023-03-01T14:30:25;8.10;1.00
5457;DHT22;2751;49.802;9.944;2023-03-01T14:32:54;8.20;1.00
5457;DHT22;2751;49.802;9.944;2023-03-01T14:35:22;8.20;1.00
5457;DHT22;2751;49.802;9.944;2023-03-01T14:37:51;8.20;1.00
5457;DHT22;2751;49.802;9.944;2023-03-01T14:40:24;8.30;1.00
5457;DHT22;2751;49.802;9.944;2023-03-01T14:42:51;8.30;1.00
5457;DHT22;2751;49.802;9.944;2023-03-01T14:45:19;8.30;1.00
5457;DHT22;2751;49.802;9.944;2023-03-01T14:47:47;8.40;1.00
5457;DHT22;2751;49.802;9.944;2023-03-01T14:50:23;8.40;1.00
5457;DHT22;2751;49.802;9.944;2023-03-01T14:52:54;8.40;1.00
5457;DHT22;2751;49.802;9.944;2023-03-01T14:55:26;8.40;1.00
5457;DHT22;2751;49.802;9.944;2023-03-01T14:57:54;8.40;1.00
5457;DHT22;2751;49.802;9.944;2023-03-01T15:00:23;8.40;1.00
5457;DHT22;2751;49.802;9.944;2023-03-01T15:02:52;8.40;1.00
5457;DHT22;2751;49.802;9.944;2023-03-01T15:05:25;8.40;1.00
5457;DHT22;2751;49.802;9.944;2023-03-01T15:07:54;8.40;1.00
5457;DHT22;2751;49.802;9.944;2023-03-01T15:10:24;8.40;1.00
5457;DHT22;2751;49.802;9.944;2023-03-01T15:12:52;8.40;1.00
5457;DHT22;2751;49.802;9.944;2023-03-01T15:18:05;8.40;1.00
5457;DHT22;2751;49.802;9.944;2023-03-01T15:20:33;8.40;1.00
5457;DHT22;2751;49.802;9.944;2023-03-01T15:23:03;8.40;1.00
5457;DHT22;2751;49.802;9.944;2023-03-01T15:25:31;8.40;1.00
5457;DHT22;2751;49.802;9.944;2023-03-01T15:28:00;8.80;1.00
5457;DHT22;2751;49.802;9.944;2023-03-01T15:30:30;8.40;1.00
5457;DHT22;2751;49.802;9.944;2023-03-01T15:33:27;8.40;1.00
5457;DHT22;2751;49.802;9.944;2023-03-01T15:35:55;8.40;1.00
5457;DHT22;2751;49.802;9.944;2023-03-01T15:38:36;8.60;1.00
5457;DHT22;2751;49.802;9.944;2023-03-01T15:41:24;8.30;1.00
5457;DHT22;2751;49.802;9.944;2023-03-01T15:43:52;8.30;1.00
5457;DHT22;2751;49.802;9.944;2023-03-01T15:46:24;8.30;1.00
5457;DHT22;2751;49.802;9.944;2023-03-01T15:48:54;8.30;1.00
5457;DHT22;2751;49.802;9.944;2023-03-01T15:51:28;8.30;1.00
5457;DHT22;2751;49.802;9.944;2023-03-01T15:53:59;8.30;1.00
5457;DHT22;2751;49.802;9.944;2023-03-01T15:56:26;8.30;1.00
5457;DHT22;2751;49.802;9.944;2023-03-01T15:58:57;8.30;1.00
5457;DHT22;2751;49.802;9.944;2023-03-01T16:01:24;8.30;1.00
5457;DHT22;2751;49.802;9.944;2023-03-01T16:03:51;8.30;1.00
5457;DHT22;2751;49.802;9.944;2023-03-01T16:06:19;8.20;1.00
5457;DHT22;2751;49.802;9.944;2023-03-01T16:08:46;8.10;1.00
5457;DHT22;2751;49.802;9.944;2023-03-01T16:11:17;8.00;1.00
5457;DHT22;2751;49.802;9.944;2023-03-01T16:13:44;8.00;1.00
5457;DHT22;2751;49.802;9.944;2023-03-01T16:16:12;7.90;1.00
5457;DHT22;2751;49.802;9.944;2023-03-01T16:18:42;7.80;1.00
5457;DHT22;2751;49.802;9.944;2023-03-01T16:21:13;7.80;1.00
5457;DHT22;2751;49.802;9.944;2023-03-01T16:23:42;7.70;1.00
5457;DHT22;2751;49.802;9.944;2023-03-01T16:26:09;7.60;1.00
5457;DHT22;2751;49.802;9.944;2023-03-01T16:28:38;7.60;1.00
5457;DHT22;2751;49.802;9.944;2023-03-01T16:31:05;7.50;1.00
5457;DHT22;2751;49.802;9.944;2023-03-01T16:33:32;7.40;1.00
5457;DHT22;2751;49.802;9.944;2023-03-01T16:35:59;7.40;1.00
5457;DHT22;2751;49.802;9.944;2023-03-01T16:38:27;7.40;1.00
5457;DHT22;2751;49.802;9.944;2023-03-01T16:40:54;7.30;1.00
5457;DHT22;2751;49.802;9.944;2023-03-01T16:43:21;7.20;1.00
5457;DHT22;2751;49.802;9.944;2023-03-01T16:45:49;7.20;1.00
5457;DHT22;2751;49.802;9.944;2023-03-01T16:48:16;7.10;1.00
5457;DHT22;2751;49.802;9.944;2023-03-01T16:50:43;7.10;1.00
5457;DHT22;2751;49.802;9.944;2023-03-01T16:53:10;7.00;1.00
5457;DHT22;2751;49.802;9.944;2023-03-01T16:55:37;6.90;1.00